createdAt,value
2023-12-09T00:00:23.305Z,9.20
2023-12-09T00:02:51.535Z,9.60
2023-12-09T00:05:19.725Z,9.90
2023-12-09T00:07:47.880Z,9.80
2023-12-09T00:10:16.131Z,9.70
2023-12-09T00:12:45.701Z,9.10
2023-12-09T00:15:13.963Z,9.80
2023-12-09T00:17:42.074Z,9.10
2023-12-09T00:20:11.086Z,9.30
2023-12-09T00:22:39.257Z,9.00
2023-12-09T00:25:09.376Z,9.60
2023-12-09T00:27:37.645Z,9.00
2023-12-09T00:30:08.994Z,9.20
2023-12-09T00:32:37.292Z,9.00
2023-12-09T00:35:06.359Z,9.00
2023-12-09T00:37:34.698Z,9.00
2023-12-09T00:40:02.810Z,9.40
2023-12-09T00:42:30.931Z,9.60
2023-12-09T00:44:59.027Z,9.00
2023-12-09T00:47:28.732Z,9.70
2023-12-09T00:49:56.860Z,9.80
2023-12-09T00:52:25.413Z,9.20
2023-12-09T00:54:53.832Z,9.30
2023-12-09T00:57:23.684Z,9.60
2023-12-09T00:59:52.222Z,9.50
2023-12-09T01:02:20.445Z,9.50
2023-12-09T01:04:52.018Z,9.70
2023-12-09T01:07:20.272Z,8.90
2023-12-09T01:09:48.437Z,10.30
2023-12-09T01:12:16.642Z,8.80
2023-12-09T01:14:44.782Z,9.40
2023-12-09T01:17:12.949Z,9.10
2023-12-09T01:19:41.126Z,9.10
2023-12-09T01:22:11.171Z,9.40
2023-12-09T01:24:39.384Z,8.50
2023-12-09T01:27:07.644Z,8.70
2023-12-09T01:29:35.917Z,8.60
2023-12-09T01:32:04.210Z,9.10
2023-12-09T01:34:32.596Z,7.10
2023-12-09T01:37:00.857Z,9.10
2023-12-09T01:39:31.044Z,8.50
2023-12-09T01:41:59.546Z,9.20
2023-12-09T01:44:30.646Z,9.20
2023-12-09T01:46:58.750Z,9.00
2023-12-09T01:49:27.345Z,8.40
2023-12-09T01:51:59.553Z,8.40
2023-12-09T01:54:29.729Z,8.90
2023-12-09T01:56:58.578Z,8.70
2023-12-09T01:59:26.789Z,8.90
2023-12-09T02:01:55.325Z,9.00
2023-12-09T02:04:23.856Z,8.30
2023-12-09T02:06:53.346Z,9.10
2023-12-09T02:09:21.699Z,8.60
2023-12-09T02:11:57.534Z,8.30
2023-12-09T02:14:35.091Z,8.30
2023-12-09T02:17:10.876Z,9.00
2023-12-09T02:19:39.648Z,8.30
2023-12-09T02:22:09.705Z,9.00
2023-12-09T02:24:39.396Z,8.20
2023-12-09T02:27:13.548Z,9.40
2023-12-09T02:29:53.045Z,8.60
2023-12-09T02:32:28.441Z,8.20
2023-12-09T02:34:57.344Z,8.10
2023-12-09T02:37:27.268Z,8.70
2023-12-09T02:39:57.947Z,8.10
2023-12-09T02:42:27.704Z,8.10
2023-12-09T02:44:57.009Z,8.30
2023-12-09T02:47:26.432Z,8.40
2023-12-09T02:49:55.495Z,8.70
2023-12-09T02:52:23.704Z,7.80
2023-12-09T02:54:51.849Z,8.10
2023-12-09T02:57:21.509Z,8.40
2023-12-09T02:59:49.736Z,8.10
2023-12-09T03:02:20.157Z,8.80
2023-12-09T03:04:48.306Z,8.70
2023-12-09T03:07:21.142Z,8.60
2023-12-09T03:09:49.463Z,8.10
2023-12-09T03:12:18.054Z,8.50
2023-12-09T03:14:47.875Z,8.80
2023-12-09T03:17:15.992Z,8.30
2023-12-09T03:19:44.303Z,8.70
2023-12-09T03:22:12.434Z,8.90
2023-12-09T03:24:40.542Z,8.90
2023-12-09T03:27:08.770Z,8.90
2023-12-09T03:29:39.169Z,8.30
2023-12-09T03:32:09.241Z,8.60
2023-12-09T03:34:37.592Z,8.50
2023-12-09T03:37:06.024Z,8.50
2023-12-09T03:39:34.349Z,9.00
2023-12-09T03:42:02.698Z,9.20
2023-12-09T03:44:31.819Z,8.30
2023-12-09T03:47:01.731Z,8.10
2023-12-09T03:49:33.756Z,8.00
2023-12-09T03:52:02.174Z,8.90
2023-12-09T03:54:30.573Z,8.60
2023-12-09T03:56:58.869Z,8.00
2023-12-09T03:59:27.346Z,9.20
2023-12-09T04:01:57.197Z,8.40
2023-12-09T04:04:27.708Z,8.00
2023-12-09T04:06:57.314Z,7.90
2023-12-09T04:09:25.585Z,8.20
2023-12-09T04:11:54.128Z,8.70
2023-12-09T04:14:22.351Z,8.00
2023-12-09T04:16:50.489Z,7.60
2023-12-09T04:19:21.698Z,8.50
2023-12-09T04:21:49.886Z,8.40
2023-12-09T04:24:19.717Z,8.40
2023-12-09T04:26:48.294Z,8.60
2023-12-09T04:29:16.412Z,7.80
2023-12-09T04:31:45.475Z,7.80
2023-12-09T04:34:13.635Z,8.70
2023-12-09T04:36:42.481Z,7.80
2023-12-09T04:39:11.451Z,7.70
2023-12-09T04:41:42.581Z,8.20
2023-12-09T04:44:10.883Z,8.20
2023-12-09T04:46:39.246Z,8.60
2023-12-09T04:49:07.687Z,7.70
2023-12-09T04:51:36.509Z,7.50
2023-12-09T04:54:04.906Z,7.90
2023-12-09T04:56:33.159Z,7.90
2023-12-09T04:59:02.764Z,8.40
2023-12-09T05:01:31.102Z,9.00
2023-12-09T05:03:59.638Z,8.50
2023-12-09T05:06:29.822Z,8.50
2023-12-09T05:08:58.213Z,7.90
2023-12-09T05:11:26.525Z,7.90
2023-12-09T05:13:54.772Z,8.30
2023-12-09T05:16:24.446Z,8.50
2023-12-09T05:18:53.451Z,8.70
2023-12-09T05:21:21.808Z,7.90
2023-12-09T05:24:04.083Z,8.50
2023-12-09T05:26:33.374Z,7.90
2023-12-09T05:29:02.157Z,8.50
2023-12-09T05:31:31.639Z,7.90
2023-12-09T05:33:59.891Z,7.90
2023-12-09T05:36:28.126Z,8.20
2023-12-09T05:38:56.317Z,8.50
2023-12-09T05:41:24.600Z,7.90
2023-12-09T05:43:52.814Z,8.50
2023-12-09T05:46:21.916Z,7.90
2023-12-09T05:48:51.817Z,8.60
2023-12-09T05:51:20.245Z,8.50
2023-12-09T05:53:48.491Z,7.70
2023-12-09T05:56:16.694Z,9.20
2023-12-09T05:58:44.749Z,8.00
2023-12-09T06:01:13.022Z,8.70
2023-12-09T06:03:41.228Z,8.70
2023-12-09T06:06:11.210Z,8.10
2023-12-09T06:08:39.469Z,8.60
2023-12-09T06:11:07.831Z,8.10
2023-12-09T06:13:36.548Z,8.00
2023-12-09T06:16:07.698Z,8.90
2023-12-09T06:18:41.888Z,8.10
2023-12-09T06:21:11.433Z,9.40
2023-12-09T06:23:39.602Z,8.30
2023-12-09T06:26:08.885Z,8.40
2023-12-09T06:28:38.680Z,8.00
2023-12-09T06:31:11.748Z,8.90
2023-12-09T06:33:40.512Z,8.90
2023-12-09T06:36:09.734Z,8.10
2023-12-09T06:38:42.516Z,8.10
2023-12-09T06:41:12.886Z,8.00
2023-12-09T06:43:43.392Z,8.00
2023-12-09T06:46:11.555Z,8.10
2023-12-09T06:48:46.010Z,8.10
2023-12-09T06:51:17.185Z,8.10
2023-12-09T06:53:50.955Z,8.60
2023-12-09T06:56:22.374Z,8.80
2023-12-09T06:58:50.949Z,8.80
2023-12-09T07:01:22.895Z,8.20
2023-12-09T07:03:51.815Z,7.90
2023-12-09T07:06:24.030Z,8.80
2023-12-09T07:08:54.577Z,8.90
2023-12-09T07:11:24.315Z,8.80
2023-12-09T07:13:52.851Z,8.10
2023-12-09T07:16:21.102Z,8.80
2023-12-09T07:18:52.274Z,9.00
2023-12-09T07:21:23.724Z,8.20
2023-12-09T07:23:53.390Z,8.60
2023-12-09T07:26:21.616Z,8.90
2023-12-09T07:28:49.918Z,9.10
2023-12-09T07:31:18.526Z,8.90
2023-12-09T07:33:46.973Z,8.90
2023-12-09T07:36:15.371Z,8.30
2023-12-09T07:38:46.126Z,8.70
2023-12-09T07:41:16.101Z,8.40
2023-12-09T07:43:44.317Z,9.10
2023-12-09T07:46:15.110Z,9.00
2023-12-09T07:48:43.409Z,8.10
2023-12-09T07:51:12.012Z,8.60
2023-12-09T07:53:40.165Z,9.10
2023-12-09T07:56:09.166Z,8.50
2023-12-09T07:58:38.752Z,8.40
2023-12-09T08:01:10.228Z,8.70
2023-12-09T08:03:39.729Z,9.00
2023-12-09T08:06:08.513Z,9.30
2023-12-09T08:08:37.936Z,8.60
2023-12-09T08:11:06.956Z,9.90
2023-12-09T08:13:35.382Z,8.60
2023-12-09T08:16:05.515Z,9.30
2023-12-09T08:18:34.243Z,8.60
2023-12-09T08:21:06.858Z,9.70
2023-12-09T08:23:35.099Z,8.70
2023-12-09T08:26:05.173Z,9.30
2023-12-09T08:28:35.402Z,9.40
2023-12-09T08:31:05.672Z,8.80
2023-12-09T08:33:34.085Z,8.70
2023-12-09T08:36:03.054Z,8.90
2023-12-09T08:38:31.647Z,10.30
2023-12-09T08:40:59.904Z,9.10
2023-12-09T08:43:28.178Z,8.80
2023-12-09T08:45:56.405Z,8.90
2023-12-09T08:48:26.240Z,8.80
2023-12-09T08:50:54.528Z,8.90
2023-12-09T08:53:22.783Z,9.00
2023-12-09T08:55:50.980Z,8.90
2023-12-09T08:58:19.238Z,9.70
2023-12-09T09:00:50.078Z,9.70
2023-12-09T09:03:20.285Z,9.00
2023-12-09T09:05:51.331Z,9.20
2023-12-09T09:08:22.336Z,9.20
2023-12-09T09:10:51.783Z,9.50
2023-12-09T09:13:20.307Z,9.00
2023-12-09T09:15:48.422Z,9.00
2023-12-09T09:18:17.534Z,9.20
2023-12-09T09:20:47.790Z,9.10
2023-12-09T09:23:17.318Z,9.80
2023-12-09T09:25:45.493Z,9.50
2023-12-09T09:28:13.801Z,9.10
2023-12-09T09:30:44.785Z,9.40
2023-12-09T09:33:13.161Z,9.70
2023-12-09T09:35:41.489Z,9.70
2023-12-09T09:38:09.515Z,9.70
2023-12-09T09:40:38.974Z,9.60
2023-12-09T09:43:10.591Z,9.90
2023-12-09T09:45:39.268Z,9.80
2023-12-09T09:48:08.152Z,9.20
2023-12-09T09:50:41.966Z,10.20
2023-12-09T09:53:12.959Z,9.40
2023-12-09T09:55:43.764Z,9.70
2023-12-09T09:58:14.590Z,10.60
2023-12-09T10:00:43.080Z,9.90
2023-12-09T10:03:11.556Z,10.20
2023-12-09T10:05:39.935Z,10.10
2023-12-09T10:08:08.272Z,9.50
2023-12-09T10:10:36.737Z,10.20
2023-12-09T10:13:06.518Z,10.70
2023-12-09T10:15:34.712Z,9.70
2023-12-09T10:18:04.995Z,10.70
2023-12-09T10:20:36.522Z,9.90
2023-12-09T10:23:04.788Z,9.60
2023-12-09T10:25:32.879Z,9.60
2023-12-09T10:28:01.284Z,10.40
2023-12-09T10:30:31.344Z,9.60
2023-12-09T10:33:01.552Z,9.60
2023-12-09T10:35:31.352Z,9.60
2023-12-09T10:38:03.357Z,10.20
2023-12-09T10:40:31.760Z,9.60
2023-12-09T10:43:00.038Z,9.80
2023-12-09T10:45:28.240Z,11.10
2023-12-09T10:47:57.976Z,9.70
2023-12-09T10:50:26.341Z,10.30
2023-12-09T10:52:54.571Z,9.50
2023-12-09T10:55:22.913Z,9.60
2023-12-09T10:57:53.019Z,10.40
2023-12-09T11:00:22.300Z,10.20
2023-12-09T11:02:51.766Z,9.60
2023-12-09T11:05:23.258Z,10.20
2023-12-09T11:07:52.213Z,9.60
2023-12-09T11:10:21.836Z,10.70
2023-12-09T11:12:50.432Z,9.60
2023-12-09T11:15:29.788Z,10.50
2023-12-09T11:18:08.122Z,9.50
2023-12-09T11:20:40.403Z,10.80
2023-12-09T11:23:11.749Z,10.70
2023-12-09T11:25:41.811Z,9.50
2023-12-09T11:28:14.768Z,10.20
2023-12-09T11:30:45.872Z,9.60
2023-12-09T11:33:14.678Z,9.60
2023-12-09T11:35:47.337Z,10.20
2023-12-09T11:38:16.492Z,10.30
2023-12-09T11:40:47.229Z,10.20
2023-12-09T11:43:18.708Z,9.60
2023-12-09T11:45:47.981Z,9.60
2023-12-09T11:48:17.704Z,10.30
2023-12-09T11:50:47.493Z,9.60
2023-12-09T11:53:18.056Z,10.90
2023-12-09T11:55:47.692Z,9.50
2023-12-09T11:58:15.923Z,9.60
2023-12-09T12:00:44.287Z,10.30
2023-12-09T12:03:12.610Z,9.60
2023-12-09T12:05:40.930Z,9.60
2023-12-09T12:08:16.742Z,10.40
2023-12-09T12:10:45.162Z,10.10
2023-12-09T12:13:17.231Z,10.50
2023-12-09T12:15:46.061Z,9.50
2023-12-09T12:18:15.494Z,9.50
2023-12-09T12:20:44.217Z,9.50
2023-12-09T12:23:26.384Z,9.50
2023-12-09T12:26:04.308Z,9.40
2023-12-09T12:28:32.926Z,9.50
2023-12-09T12:31:05.177Z,9.40
2023-12-09T12:33:33.956Z,9.40
2023-12-09T12:36:12.699Z,9.40
2023-12-09T12:39:10.563Z,9.90
2023-12-09T12:41:39.396Z,9.30
2023-12-09T12:44:10.670Z,9.40
2023-12-09T12:46:41.720Z,9.40
2023-12-09T12:49:13.277Z,9.30
2023-12-09T12:51:51.661Z,9.40
2023-12-09T12:54:25.108Z,9.40
2023-12-09T12:57:10.547Z,9.30
2023-12-09T12:59:42.004Z,9.30
2023-12-09T13:02:15.518Z,9.30
2023-12-09T13:04:46.441Z,9.30
2023-12-09T13:07:18.122Z,9.30
2023-12-09T13:10:01.199Z,9.30
2023-12-09T13:12:32.097Z,9.20
2023-12-09T13:15:03.328Z,9.30
2023-12-09T13:17:35.102Z,9.30
2023-12-09T13:20:08.133Z,9.70
2023-12-09T13:22:38.623Z,8.90
2023-12-09T13:25:16.574Z,9.30
2023-12-09T13:27:47.172Z,9.20
2023-12-09T13:30:16.084Z,9.30
2023-12-09T13:32:45.574Z,9.20
2023-12-09T13:35:18.403Z,9.30
2023-12-09T13:37:47.528Z,9.20
2023-12-09T13:40:20.886Z,9.20
2023-12-09T13:42:51.284Z,9.20
2023-12-09T13:45:19.995Z,9.20
2023-12-09T13:47:51.743Z,9.20
2023-12-09T13:50:23.190Z,9.20
2023-12-09T13:52:59.536Z,9.20
2023-12-09T13:55:36.119Z,8.70
2023-12-09T13:58:05.164Z,9.20
2023-12-09T14:00:38.948Z,9.20
2023-12-09T14:03:10.153Z,9.20
2023-12-09T14:05:40.830Z,9.20
2023-12-09T14:08:09.270Z,9.10
2023-12-09T14:10:40.265Z,9.10
2023-12-09T14:13:09.632Z,9.10
2023-12-09T14:15:39.981Z,9.10
2023-12-09T14:18:08.605Z,9.10
2023-12-09T14:20:37.012Z,9.10
2023-12-09T14:23:06.237Z,9.10
2023-12-09T14:25:40.067Z,9.10
2023-12-09T14:28:08.356Z,9.10
2023-12-09T14:30:36.721Z,9.10
2023-12-09T14:33:05.309Z,9.10
2023-12-09T14:35:33.820Z,9.10
2023-12-09T14:38:07.301Z,9.20
2023-12-09T14:40:35.659Z,8.50
2023-12-09T14:43:10.602Z,9.10
2023-12-09T14:45:40.045Z,9.20
2023-12-09T14:48:09.869Z,9.10
2023-12-09T14:50:38.338Z,9.20
2023-12-09T14:53:06.948Z,9.20
2023-12-09T14:55:35.899Z,9.20
2023-12-09T14:58:08.027Z,9.20
2023-12-09T15:00:36.561Z,9.10
2023-12-09T15:03:06.011Z,9.20
2023-12-09T15:05:39.478Z,9.20
2023-12-09T15:08:08.912Z,9.30
2023-12-09T15:10:37.183Z,9.30
2023-12-09T15:13:06.985Z,9.40
2023-12-09T15:15:35.332Z,9.40
2023-12-09T15:18:04.180Z,9.40
2023-12-09T15:20:33.027Z,9.30
2023-12-09T15:23:01.627Z,9.40
2023-12-09T15:25:30.219Z,9.40
2023-12-09T15:27:58.571Z,9.40
2023-12-09T15:30:31.234Z,9.40
2023-12-09T15:32:59.739Z,9.40
2023-12-09T15:35:28.210Z,9.40
2023-12-09T15:37:58.344Z,9.40
2023-12-09T15:40:26.866Z,9.40
2023-12-09T15:42:55.249Z,9.40
2023-12-09T15:45:23.513Z,9.50
2023-12-09T15:47:53.402Z,9.60
2023-12-09T15:50:21.772Z,9.60
2023-12-09T15:52:50.191Z,9.60
2023-12-09T15:55:20.046Z,9.70
2023-12-09T15:57:48.406Z,9.70
2023-12-09T16:00:17.644Z,9.70
2023-12-09T16:02:47.117Z,9.70
2023-12-09T16:05:17.151Z,9.70
2023-12-09T16:07:45.496Z,9.80
2023-12-09T16:10:14.028Z,9.90
2023-12-09T16:12:46.243Z,9.90
2023-12-09T16:15:15.471Z,10.00
2023-12-09T16:17:44.108Z,10.00
2023-12-09T16:20:13.506Z,10.10
2023-12-09T16:22:46.497Z,10.10
2023-12-09T16:25:15.118Z,10.10
2023-12-09T16:27:43.797Z,10.20
2023-12-09T16:30:13.126Z,10.20
2023-12-09T16:32:41.534Z,10.30
2023-12-09T16:35:10.548Z,10.40
2023-12-09T16:37:39.537Z,10.40
2023-12-09T16:40:12.034Z,10.50
2023-12-09T16:42:40.558Z,10.60
2023-12-09T16:45:12.284Z,10.60
2023-12-09T16:47:42.561Z,10.60
2023-12-09T16:50:12.274Z,10.70
2023-12-09T16:52:41.401Z,10.80
2023-12-09T16:55:11.828Z,10.70
2023-12-09T16:57:40.393Z,10.90
2023-12-09T17:00:09.770Z,10.90
2023-12-09T17:02:38.269Z,11.00
2023-12-09T17:05:07.403Z,10.10
2023-12-09T17:07:37.664Z,11.10
2023-12-09T17:10:06.611Z,11.20
2023-12-09T17:12:40.768Z,11.30
2023-12-09T17:15:10.078Z,11.40
2023-12-09T17:17:39.170Z,11.50
2023-12-09T17:20:09.219Z,11.50
2023-12-09T17:22:37.667Z,11.60
2023-12-09T17:25:06.905Z,11.60
2023-12-09T17:27:37.491Z,11.70
2023-12-09T17:30:06.722Z,11.80
2023-12-09T17:32:35.141Z,11.80
2023-12-09T17:35:03.594Z,11.80
2023-12-09T17:37:32.054Z,11.80
2023-12-09T17:40:01.161Z,11.90
2023-12-09T17:42:29.744Z,11.90
2023-12-09T17:44:59.762Z,11.90
2023-12-09T17:47:28.256Z,11.90
2023-12-09T17:49:58.505Z,11.90
2023-12-09T17:52:29.934Z,12.00
2023-12-09T17:54:59.598Z,12.40
2023-12-09T17:57:28.013Z,11.90
2023-12-09T17:59:56.592Z,11.90
2023-12-09T18:02:26.565Z,11.90
2023-12-09T18:04:55.054Z,11.90
2023-12-09T18:07:23.360Z,11.80
2023-12-09T18:09:51.797Z,11.80
2023-12-09T18:12:20.238Z,11.80
2023-12-09T18:14:49.142Z,11.80
2023-12-09T18:17:17.560Z,11.70
2023-12-09T18:19:47.894Z,11.80
2023-12-09T18:22:18.420Z,11.80
2023-12-09T18:24:48.133Z,11.70
2023-12-09T18:27:16.740Z,11.60
2023-12-09T18:29:45.049Z,11.60
2023-12-09T18:32:16.605Z,11.60
2023-12-09T18:34:46.558Z,11.60
2023-12-09T18:37:14.818Z,11.60
2023-12-09T18:39:43.165Z,11.50
2023-12-09T18:42:11.690Z,11.40
2023-12-09T18:44:40.054Z,11.40
2023-12-09T18:47:08.368Z,11.40
2023-12-09T18:49:36.829Z,11.30
2023-12-09T18:52:06.884Z,11.30
2023-12-09T18:54:36.766Z,11.20
2023-12-09T18:57:05.302Z,11.20
2023-12-09T18:59:33.783Z,11.30
2023-12-09T19:02:14.200Z,11.30
2023-12-09T19:04:44.530Z,11.30
2023-12-09T19:07:14.732Z,11.00
2023-12-09T19:09:45.442Z,11.40
2023-12-09T19:12:14.052Z,11.40
2023-12-09T19:14:42.510Z,11.50
2023-12-09T19:17:10.827Z,10.20
2023-12-09T19:19:39.282Z,11.50
2023-12-09T19:22:07.667Z,11.50
2023-12-09T19:24:37.478Z,11.60
2023-12-09T19:27:06.777Z,11.60
2023-12-09T19:29:36.540Z,11.60
2023-12-09T19:32:05.490Z,11.70
2023-12-09T19:34:33.811Z,11.70
2023-12-09T19:37:04.219Z,10.60
2023-12-09T19:39:34.207Z,11.70
2023-12-09T19:42:04.043Z,11.70
2023-12-09T19:44:32.421Z,11.70
2023-12-09T19:47:00.822Z,11.70
2023-12-09T19:49:31.929Z,11.30
2023-12-09T19:52:00.779Z,11.70
2023-12-09T19:54:29.202Z,11.80
2023-12-09T19:57:05.568Z,11.70
2023-12-09T19:59:35.535Z,11.70
2023-12-09T20:02:03.766Z,11.70
2023-12-09T20:04:35.389Z,11.70
2023-12-09T20:07:03.930Z,11.70
2023-12-09T20:09:32.513Z,11.60
2023-12-09T20:12:00.897Z,11.60
2023-12-09T20:14:29.222Z,11.60
2023-12-09T20:16:58.955Z,11.50
2023-12-09T20:19:27.475Z,11.50
2023-12-09T20:21:55.812Z,11.50
2023-12-09T20:24:24.037Z,11.50
2023-12-09T20:26:52.564Z,11.50
2023-12-09T20:29:21.018Z,11.40
2023-12-09T20:31:49.286Z,11.40
2023-12-09T20:34:19.333Z,11.50
2023-12-09T20:36:48.935Z,11.50
2023-12-09T20:39:17.158Z,11.50
2023-12-09T20:41:45.343Z,11.50
2023-12-09T20:44:13.548Z,11.50
2023-12-09T20:46:44.876Z,11.50
2023-12-09T20:49:14.969Z,11.40
2023-12-09T20:51:47.071Z,11.40
2023-12-09T20:54:15.471Z,11.40
2023-12-09T20:56:43.861Z,11.40
2023-12-09T20:59:12.406Z,11.40
2023-12-09T21:01:46.192Z,11.40
2023-12-09T21:04:15.055Z,11.40
2023-12-09T21:06:43.664Z,11.40
2023-12-09T21:09:13.451Z,11.40
2023-12-09T21:11:41.783Z,11.40
2023-12-09T21:14:10.100Z,11.30
2023-12-09T21:16:38.563Z,11.30
2023-12-09T21:19:06.943Z,11.30
2023-12-09T21:21:35.313Z,11.30
2023-12-09T21:24:03.637Z,11.40
2023-12-09T21:26:33.517Z,11.30
2023-12-09T21:29:03.549Z,11.20
2023-12-09T21:31:31.915Z,11.20
2023-12-09T21:34:00.492Z,11.20
2023-12-09T21:36:28.852Z,11.20
2023-12-09T21:38:57.196Z,11.20
2023-12-09T21:41:25.786Z,11.20
2023-12-09T21:43:55.446Z,11.20
2023-12-09T21:46:25.164Z,11.20
2023-12-09T21:48:55.118Z,11.20
2023-12-09T21:51:23.473Z,11.20
2023-12-09T21:53:51.762Z,11.10
2023-12-09T21:56:23.568Z,11.10
2023-12-09T21:58:52.150Z,11.20
2023-12-09T22:01:22.677Z,11.20
2023-12-09T22:03:51.377Z,11.10
2023-12-09T22:06:20.839Z,11.10
2023-12-09T22:08:49.385Z,11.00
2023-12-09T22:11:18.386Z,11.00
2023-12-09T22:13:46.806Z,11.00
2023-12-09T22:16:22.140Z,11.00
2023-12-09T22:18:50.690Z,11.00
2023-12-09T22:21:19.381Z,10.90
2023-12-09T22:23:47.596Z,10.90
2023-12-09T22:26:15.935Z,10.90
2023-12-09T22:28:44.808Z,11.00
2023-12-09T22:31:13.593Z,10.90
2023-12-09T22:33:45.590Z,10.90
2023-12-09T22:36:21.023Z,10.90
2023-12-09T22:38:49.534Z,11.00
2023-12-09T22:41:22.540Z,11.10
2023-12-09T22:43:51.375Z,11.10
2023-12-09T22:46:26.931Z,11.20
2023-12-09T22:48:57.109Z,11.20
2023-12-09T22:51:26.530Z,11.20
2023-12-09T22:53:55.222Z,11.20
2023-12-09T22:56:23.947Z,11.30
2023-12-09T22:58:53.375Z,11.30
2023-12-09T23:01:27.664Z,11.30
2023-12-09T23:03:57.544Z,11.70
2023-12-09T23:06:26.011Z,11.40
2023-12-09T23:08:54.989Z,11.40
2023-12-09T23:11:23.486Z,11.40
2023-12-09T23:13:51.768Z,11.40
2023-12-09T23:16:20.049Z,11.40
2023-12-09T23:18:50.621Z,11.40
2023-12-09T23:21:20.519Z,11.50
2023-12-09T23:23:48.894Z,11.50
2023-12-09T23:26:17.634Z,11.40
2023-12-09T23:28:45.915Z,11.40
2023-12-09T23:31:16.490Z,11.40
2023-12-09T23:33:48.140Z,11.40
2023-12-09T23:36:16.938Z,11.30
2023-12-09T23:38:46.763Z,11.20
2023-12-09T23:41:15.775Z,11.10
2023-12-09T23:43:44.303Z,11.10
2023-12-09T23:46:16.289Z,11.00
2023-12-09T23:48:44.740Z,10.90
2023-12-09T23:51:13.267Z,10.90
2023-12-09T23:53:41.586Z,10.80
2023-12-09T23:56:11.907Z,10.80
2023-12-09T23:58:40.123Z,10.70
